Time;durP1;ratioP1;P1;durP2;ratioP2;P2;SDS_P1;SDS_P2;PMS_P1;PMS_P2;Temp;Humidity;BMP_temperature;BMP_pressure;BME280_temperature;BME280_humidity;BME280_pressure;Samples;Min_cycle;Max_cycle;Signal;HPM_P1;HPM_P2
2024/03/16 00:00:17;;;;;;;8.63;2.20;;;7.60;99.90;;;;;;5076418;28;20036;-61
2024/03/16 00:03:04;;;;;;;6.20;1.77;;;7.60;99.90;;;;;;5097854;28;20028;-61
2024/03/16 00:05:50;;;;;;;9.93;2.00;;;7.60;99.90;;;;;;5095866;28;20028;-61
2024/03/16 00:08:36;;;;;;;6.93;2.00;;;7.60;99.90;;;;;;5099086;28;20043;-61
2024/03/16 00:11:22;;;;;;;7.80;1.55;;;7.60;99.90;;;;;;5095396;28;20059;-61
2024/03/16 00:14:08;;;;;;;5.88;1.65;;;7.60;99.90;;;;;;5095572;28;20036;-61
2024/03/16 00:16:55;;;;;;;8.55;2.28;;;7.60;99.90;;;;;;5095287;28;20093;-61
2024/03/16 00:19:41;;;;;;;10.00;2.00;;;7.70;99.90;;;;;;5056445;28;20071;-61
2024/03/16 00:22:27;;;;;;;6.03;1.77;;;7.70;99.90;;;;;;5073329;28;20105;-61
2024/03/16 00:25:14;;;;;;;9.02;1.80;;;7.70;99.90;;;;;;5079550;28;20047;-61
2024/03/16 00:28:00;;;;;;;11.05;2.40;;;7.70;99.90;;;;;;5081912;28;20088;-61
2024/03/16 00:30:46;;;;;;;6.57;2.15;;;7.80;99.90;;;;;;5079846;28;20284;-61
2024/03/16 00:33:32;;;;;;;16.33;3.08;;;7.90;99.90;;;;;;5087723;28;20035;-61
2024/03/16 00:36:17;;;;;;;10.05;2.28;;;7.90;99.90;;;;;;5091181;28;20047;-61
2024/03/16 00:39:14;;;;;;;10.02;2.63;;;7.90;99.90;;;;;;5092514;28;20040;-61
2024/03/16 00:42:01;;;;;;;6.97;2.67;;;7.90;99.90;;;;;;5096730;28;20035;-61
2024/03/16 00:44:47;;;;;;;8.48;1.95;;;7.90;99.90;;;;;;5084716;28;20111;-61
2024/03/16 00:47:33;;;;;;;11.48;2.38;;;8.00;99.90;;;;;;5101853;28;20035;-61
2024/03/16 00:50:19;;;;;;;12.15;2.20;;;8.00;99.90;;;;;;5087333;28;20415;-61
2024/03/16 00:53:04;;;;;;;11.35;2.15;;;8.10;99.90;;;;;;5092312;28;20127;-61
2024/03/16 00:55:50;;;;;;;8.07;2.10;;;8.10;99.90;;;;;;5086657;28;20096;-61
2024/03/16 00:58:36;;;;;;;9.73;2.08;;;8.10;99.90;;;;;;5092434;28;20112;-61
2024/03/16 01:01:22;;;;;;;9.83;2.23;;;8.20;99.90;;;;;;5084384;28;20067;-61
2024/03/16 01:04:08;;;;;;;5.28;2.22;;;8.20;99.90;;;;;;5074957;28;20032;-61
2024/03/16 01:06:54;;;;;;;5.68;2.15;;;8.20;99.90;;;;;;5051609;28;20047;-61
2024/03/16 01:09:40;;;;;;;9.98;2.28;;;8.20;99.90;;;;;;5082215;28;20036;-61
2024/03/16 01:12:26;;;;;;;4.53;2.00;;;8.20;99.90;;;;;;5067579;28;20392;-61
2024/03/16 01:15:12;;;;;;;6.32;2.42;;;8.20;99.90;;;;;;5078974;28;20028;-61
2024/03/16 01:17:58;;;;;;;4.07;2.00;;;8.30;99.90;;;;;;5067818;28;20032;-61
2024/03/16 01:20:44;;;;;;;10.87;2.10;;;8.30;99.90;;;;;;5078353;28;20033;-62
2024/03/16 01:23:30;;;;;;;7.30;1.98;;;8.30;99.90;;;;;;5065711;28;20024;-62
2024/03/16 01:26:16;;;;;;;5.23;1.90;;;8.30;99.90;;;;;;5066707;28;20039;-62
2024/03/16 01:29:04;;;;;;;8.27;1.90;;;8.30;99.90;;;;;;5067454;28;20463;-62
2024/03/16 01:31:50;;;;;;;7.20;2.10;;;8.30;99.90;;;;;;5065082;28;20054;-62
2024/03/16 01:34:36;;;;;;;6.00;2.10;;;8.30;99.90;;;;;;5070664;28;20047;-62
2024/03/16 01:37:21;;;;;;;8.77;1.80;;;8.30;99.90;;;;;;5078855;28;20132;-62
2024/03/16 01:40:08;;;;;;;3.75;1.42;;;8.30;99.90;;;;;;5074125;28;20297;-62
2024/03/16 01:42:54;;;;;;;3.45;1.70;;;8.30;99.90;;;;;;5070468;28;20517;-62
2024/03/16 01:45:41;;;;;;;3.47;1.00;;;8.30;99.90;;;;;;5072514;28;20533;-62
2024/03/16 01:48:27;;;;;;;3.55;1.25;;;8.20;99.90;;;;;;5064182;28;20106;-62
2024/03/16 01:51:13;;;;;;;3.45;1.20;;;8.20;99.90;;;;;;5072354;28;20036;-62
2024/03/16 01:53:58;;;;;;;6.53;1.10;;;8.20;99.90;;;;;;5066646;28;20644;-62
2024/03/16 01:56:44;;;;;;;3.45;1.40;;;8.30;99.90;;;;;;5073889;28;20071;-62
2024/03/16 01:59:30;;;;;;;3.13;1.25;;;8.30;99.90;;;;;;5069479;28;20032;-62
2024/03/16 02:02:32;;;;;;;2.42;1.20;;;8.30;99.90;;;;;;5064991;28;20039;-62
2024/03/16 02:05:19;;;;;;;2.90;1.17;;;8.30;99.90;;;;;;5072087;28;20027;-62
2024/03/16 02:08:05;;;;;;;;;;;8.30;99.90;;;;;;5064962;28;20036;-62
2024/03/16 02:10:51;;;;;;;2.45;1.30;;;8.30;99.90;;;;;;5074036;28;19908;-62
2024/03/16 02:13:37;;;;;;;2.20;1.20;;;8.30;99.90;;;;;;5064430;28;20039;-62
2024/03/16 02:16:22;;;;;;;2.80;1.30;;;8.30;99.90;;;;;;5070781;28;20473;-62
2024/03/16 02:19:08;;;;;;;3.08;1.00;;;8.20;99.90;;;;;;5071974;28;20127;-62
2024/03/16 02:21:54;;;;;;;2.17;0.80;;;8.20;99.90;;;;;;5070229;28;20123;-62
2024/03/16 02:24:40;;;;;;;3.60;1.45;;;8.20;99.90;;;;;;5068137;28;20609;-62
2024/03/16 02:27:26;;;;;;;2.40;1.20;;;8.20;99.90;;;;;;5073969;28;20043;-62
2024/03/16 02:30:14;;;;;;;2.70;1.00;;;8.20;99.90;;;;;;5071687;28;20107;-62
2024/03/16 02:33:00;;;;;;;3.28;0.93;;;8.20;99.90;;;;;;5051476;28;20063;-62
2024/03/16 02:35:46;;;;;;;3.92;1.20;;;8.20;99.90;;;;;;5070705;28;20064;-62
2024/03/16 02:38:33;;;;;;;5.63;1.33;;;8.20;99.90;;;;;;5062556;28;20029;-62
2024/03/16 02:41:19;;;;;;;3.55;1.23;;;8.20;99.90;;;;;;5069102;28;20066;-62
2024/03/16 02:44:05;;;;;;;9.85;2.90;;;8.20;99.90;;;;;;5066304;28;20040;-62
2024/03/16 02:46:52;;;;;;;7.60;1.75;;;8.10;99.90;;;;;;5067322;28;20032;-62
2024/03/16 02:49:37;;;;;;;4.18;1.92;;;8.10;99.90;;;;;;5063867;28;20032;-62
2024/03/16 02:52:23;;;;;;;5.47;1.80;;;8.20;99.90;;;;;;5066172;28;20025;-62
2024/03/16 02:55:09;;;;;;;7.68;1.60;;;8.20;99.90;;;;;;5075224;28;20093;-62
2024/03/16 02:57:55;;;;;;;7.65;1.63;;;8.20;99.90;;;;;;5071929;28;20062;-62
2024/03/16 03:00:41;;;;;;;6.75;1.70;;;8.20;99.90;;;;;;5070601;28;20801;-62
2024/03/16 03:03:28;;;;;;;6.07;1.55;;;8.20;99.90;;;;;;5065908;28;20417;-62
2024/03/16 03:06:14;;;;;;;7.13;1.67;;;8.10;99.90;;;;;;5076195;28;20463;-62
2024/03/16 03:09:00;;;;;;;7.43;2.10;;;8.10;99.90;;;;;;5063643;28;20036;-62
2024/03/16 03:11:46;;;;;;;6.20;2.17;;;8.10;99.90;;;;;;5070924;28;20020;-62
2024/03/16 03:14:32;;;;;;;14.80;3.20;;;8.10;99.90;;;;;;5069832;28;20131;-62
2024/03/16 03:17:18;;;;;;;7.72;2.45;;;8.10;99.90;;;;;;5070890;28;20093;-62
2024/03/16 03:20:08;;;;;;;8.73;3.45;;;8.10;99.90;;;;;;5069465;28;20104;-62
2024/03/16 03:22:53;;;;;;;8.60;2.47;;;8.10;99.90;;;;;;5067842;28;20028;-62
2024/03/16 03:25:39;;;;;;;6.55;2.05;;;8.10;99.90;;;;;;5077970;28;20067;-62
2024/03/16 03:28:25;;;;;;;7.97;2.38;;;8.00;99.90;;;;;;5062933;28;20103;-62
2024/03/16 03:31:11;;;;;;;6.70;2.22;;;8.10;99.90;;;;;;5073566;28;20032;-62
2024/03/16 03:33:57;;;;;;;12.23;2.80;;;8.10;99.90;;;;;;5065090;28;20098;-62
2024/03/16 03:36:46;;;;;;;9.18;2.55;;;8.10;99.90;;;;;;5066404;28;20036;-62
2024/03/16 03:39:32;;;;;;;10.15;2.25;;;8.00;99.90;;;;;;5064138;28;20492;-62
2024/03/16 03:42:19;;;;;;;8.60;2.10;;;8.10;99.90;;;;;;5068397;28;20068;-62
2024/03/16 03:45:11;;;;;;;;;;;8.00;99.90;;;;;;5070502;28;20493;-62
2024/03/16 03:48:14;;;;;;;6.90;2.50;;;8.00;99.90;;;;;;5072706;28;19994;-62
2024/03/16 03:51:00;;;;;;;8.27;2.42;;;8.00;99.90;;;;;;5069616;28;20024;-62
2024/03/16 03:53:47;;;;;;;7.25;2.10;;;8.10;99.90;;;;;;5072048;28;20029;-62
2024/03/16 03:56:34;;;;;;;8.30;2.00;;;8.10;99.90;;;;;;5074165;28;20038;-62
2024/03/16 03:59:21;;;;;;;6.70;2.42;;;8.10;99.90;;;;;;5066303;28;20035;-62
2024/03/16 04:02:07;;;;;;;6.75;2.20;;;8.10;99.90;;;;;;5065229;28;20059;-62
2024/03/16 04:04:53;;;;;;;5.35;2.58;;;8.10;99.90;;;;;;5077460;28;20735;-62
2024/03/16 04:07:39;;;;;;;8.75;2.72;;;8.10;99.90;;;;;;5064720;28;20040;-62
2024/03/16 04:10:25;;;;;;;6.25;2.53;;;8.00;99.90;;;;;;5073258;28;20044;-62
2024/03/16 04:13:12;;;;;;;6.55;2.75;;;8.00;99.90;;;;;;5074619;28;20029;-62
2024/03/16 04:16:02;;;;;;;5.68;2.50;;;8.10;99.90;;;;;;5078452;28;20127;-62
2024/03/16 04:18:50;;;;;;;6.90;2.05;;;8.00;99.90;;;;;;5073658;28;20032;-62
2024/03/16 04:21:36;;;;;;;5.60;2.35;;;8.00;99.90;;;;;;5055232;28;20047;-62
2024/03/16 04:24:21;;;;;;;7.03;2.15;;;8.00;99.90;;;;;;5067493;28;20669;-62
2024/03/16 04:27:07;;;;;;;7.22;2.33;;;8.00;99.90;;;;;;5081665;28;20024;-62
2024/03/16 04:29:53;;;;;;;4.17;2.00;;;8.00;99.90;;;;;;5075718;28;20027;-62
2024/03/16 04:32:39;;;;;;;4.88;2.22;;;8.00;99.90;;;;;;5077065;28;20283;-62
2024/03/16 04:35:25;;;;;;;2.80;1.93;;;8.00;99.90;;;;;;5072252;28;20035;-62
2024/03/16 04:38:12;;;;;;;5.25;2.30;;;8.00;99.90;;;;;;5072543;28;20029;-62
2024/03/16 04:40:59;;;;;;;3.40;2.10;;;8.00;99.90;;;;;;5076406;28;20116;-62
2024/03/16 04:43:46;;;;;;;5.13;2.20;;;7.90;99.90;;;;;;5076948;28;20063;-62
2024/03/16 04:46:33;;;;;;;5.85;2.47;;;7.90;99.90;;;;;;5075168;28;20118;-62
2024/03/16 04:49:19;;;;;;;4.07;2.05;;;7.90;99.90;;;;;;5068576;28;20417;-62
2024/03/16 04:52:05;;;;;;;4.45;2.30;;;7.90;99.90;;;;;;5066889;28;20116;-62
2024/03/16 04:54:51;;;;;;;4.45;1.70;;;7.80;99.90;;;;;;5072772;28;20044;-62
2024/03/16 04:57:37;;;;;;;2.73;1.70;;;7.80;99.90;;;;;;5078818;28;20115;-62
2024/03/16 05:00:24;;;;;;;7.75;2.40;;;7.70;99.90;;;;;;5072428;28;20040;-62
2024/03/16 05:03:11;;;;;;;9.95;2.97;;;7.70;99.90;;;;;;5080937;28;20144;-62
2024/03/16 05:05:56;;;;;;;5.70;2.55;;;7.70;99.90;;;;;;5084064;28;20043;-62
2024/03/16 05:08:44;;;;;;;9.70;2.28;;;7.70;99.90;;;;;;5070751;28;20032;-62
2024/03/16 05:11:30;;;;;;;5.30;2.88;;;7.70;99.90;;;;;;5079231;28;20033;-62
2024/03/16 05:14:15;;;;;;;5.75;2.83;;;7.70;99.90;;;;;;5071921;28;20025;-62
2024/03/16 05:17:01;;;;;;;4.90;2.60;;;7.80;99.90;;;;;;5080081;28;20032;-62
2024/03/16 05:19:48;;;;;;;6.65;2.78;;;7.80;99.90;;;;;;5081491;28;20032;-62
2024/03/16 05:22:34;;;;;;;4.65;2.38;;;7.90;99.90;;;;;;5074634;28;20037;-62
2024/03/16 05:25:19;;;;;;;6.60;2.85;;;7.80;99.90;;;;;;5082523;28;20035;-62
2024/03/16 05:28:05;;;;;;;6.57;3.00;;;7.90;99.90;;;;;;5084061;28;20106;-62
2024/03/16 05:30:52;;;;;;;6.78;2.60;;;7.90;99.90;;;;;;5078234;28;20143;-62
2024/03/16 05:33:38;;;;;;;;;;;7.90;99.90;;;;;;5073088;28;20033;-62
2024/03/16 05:36:24;;;;;;;8.15;3.00;;;7.90;99.90;;;;;;5073973;28;19912;-62
2024/03/16 05:39:10;;;;;;;6.70;2.63;;;7.90;99.90;;;;;;5080784;28;20047;-62
2024/03/16 05:41:56;;;;;;;7.85;3.20;;;7.90;99.90;;;;;;5087127;28;20032;-62
2024/03/16 05:44:42;;;;;;;8.17;3.50;;;7.90;99.90;;;;;;5072410;28;20028;-62
2024/03/16 05:47:27;;;;;;;9.60;3.95;;;8.00;99.90;;;;;;5079649;28;20365;-62
2024/03/16 05:50:13;;;;;;;7.45;4.15;;;8.00;99.90;;;;;;5073945;28;20703;-62
2024/03/16 05:52:59;;;;;;;6.90;3.55;;;8.00;99.90;;;;;;5079610;28;20023;-63
2024/03/16 05:55:45;;;;;;;7.40;3.97;;;8.00;99.90;;;;;;5078840;28;20031;-62
2024/03/16 05:58:32;;;;;;;8.40;4.15;;;8.00;99.90;;;;;;5071175;28;20112;-62
2024/03/16 06:01:18;;;;;;;;;;;8.10;99.90;;;;;;5081389;28;20452;-62
2024/03/16 06:04:04;;;;;;;6.90;4.35;;;8.10;99.90;;;;;;5059270;28;19914;-62
2024/03/16 06:06:50;;;;;;;6.68;4.15;;;8.10;99.90;;;;;;5073945;28;20025;-62
2024/03/16 06:09:35;;;;;;;6.45;4.15;;;8.10;99.90;;;;;;5080066;28;20435;-62
2024/03/16 06:12:21;;;;;;;10.60;5.35;;;8.10;99.90;;;;;;5081961;28;20036;-62
2024/03/16 06:15:08;;;;;;;6.57;4.60;;;8.10;99.90;;;;;;5070375;28;20128;-62
2024/03/16 06:17:54;;;;;;;5.30;4.22;;;8.10;99.90;;;;;;5079036;28;20059;-62
2024/03/16 06:20:40;;;;;;;7.82;4.43;;;8.10;99.90;;;;;;5067107;28;20058;-62
2024/03/16 06:23:26;;;;;;;8.30;3.97;;;8.10;99.90;;;;;;5081720;28;20523;-62
2024/03/16 06:26:17;;;;;;;7.72;4.53;;;8.10;99.90;;;;;;5078138;28;20047;-62
2024/03/16 06:29:08;;;;;;;7.38;4.10;;;8.20;99.90;;;;;;5073462;28;20181;-62
2024/03/16 06:32:05;;;;;;;5.38;3.72;;;8.20;99.90;;;;;;5076664;28;20078;-62
2024/03/16 06:34:50;;;;;;;6.18;3.60;;;8.20;99.90;;;;;;5081345;28;20039;-62
2024/03/16 06:37:36;;;;;;;6.45;3.35;;;8.30;99.90;;;;;;5076135;28;20035;-62
2024/03/16 06:40:22;;;;;;;5.17;2.80;;;8.30;99.90;;;;;;5078852;28;20551;-62
2024/03/16 06:43:08;;;;;;;5.50;2.97;;;8.40;99.90;;;;;;5079686;28;20258;-62
2024/03/16 06:45:54;;;;;;;6.78;2.88;;;8.40;99.90;;;;;;5079780;28;20036;-62
2024/03/16 06:48:40;;;;;;;5.95;2.88;;;8.40;99.90;;;;;;5081898;28;20074;-63
2024/03/16 06:51:26;;;;;;;5.70;2.38;;;8.40;99.90;;;;;;5075632;28;20771;-62
2024/03/16 06:54:15;;;;;;;4.55;2.53;;;8.40;99.90;;;;;;5077769;28;20020;-62
2024/03/16 06:57:01;;;;;;;5.10;2.45;;;8.50;99.90;;;;;;5078037;28;20120;-62
2024/03/16 06:59:47;;;;;;;5.33;2.50;;;8.50;99.90;;;;;;5075458;28;20429;-61
2024/03/16 07:02:33;;;;;;;2.45;1.85;;;8.50;99.90;;;;;;5075102;28;20040;-61
2024/03/16 07:05:19;;;;;;;5.50;2.67;;;8.50;99.90;;;;;;5078539;28;20745;-61
2024/03/16 07:08:09;;;;;;;3.75;2.53;;;8.50;99.90;;;;;;5074462;28;20593;-61
2024/03/16 07:10:56;;;;;;;4.18;2.58;;;8.60;99.90;;;;;;5072296;28;20024;-61
2024/03/16 07:13:42;;;;;;;5.05;2.67;;;8.60;99.90;;;;;;5078930;28;20111;-61
2024/03/16 07:16:28;;;;;;;7.10;3.20;;;8.60;99.90;;;;;;5081899;28;20052;-62
2024/03/16 07:19:14;;;;;;;6.38;2.35;;;8.60;99.90;;;;;;5081831;28;20484;-61
2024/03/16 07:22:00;;;;;;;4.20;2.70;;;8.60;99.90;;;;;;5083134;28;20039;-60
2024/03/16 07:24:46;;;;;;;3.53;2.10;;;8.70;99.90;;;;;;5082161;28;20032;-63
2024/03/16 07:27:32;;;;;;;4.50;2.70;;;8.80;99.90;;;;;;5076140;22;20061;-64
2024/03/16 07:30:18;;;;;;;8.00;2.78;;;8.80;99.90;;;;;;5023406;28;20132;-62
2024/03/16 07:33:04;;;;;;;4.50;2.30;;;8.80;99.90;;;;;;5026674;28;20033;-63
2024/03/16 07:35:50;;;;;;;6.82;2.50;;;8.80;99.90;;;;;;5026420;28;20045;-63
2024/03/16 07:38:36;;;;;;;4.15;1.67;;;8.80;99.90;;;;;;5023356;28;20044;-61
2024/03/16 07:41:23;;;;;;;2.70;1.45;;;8.70;99.90;;;;;;5024257;28;20498;-61
2024/03/16 07:44:10;;;;;;;3.22;1.17;;;8.70;99.90;;;;;;5022921;28;20123;-61
2024/03/16 07:46:55;;;;;;;;;;;8.70;99.90;;;;;;5009227;28;20033;-61
2024/03/16 07:49:41;;;;;;;3.50;1.15;;;8.60;99.90;;;;;;5022111;28;19956;-61
2024/03/16 07:52:27;;;;;;;2.97;1.73;;;8.60;99.90;;;;;;5022114;28;20038;-61
2024/03/16 07:55:13;;;;;;;7.15;1.73;;;8.50;99.90;;;;;;5021744;28;20287;-61
2024/03/16 07:58:00;;;;;;;2.33;1.50;;;8.40;99.90;;;;;;5016424;28;20037;-62
2024/03/16 08:00:49;;;;;;;3.38;1.83;;;8.60;99.90;;;;;;5009415;28;20034;-62
2024/03/16 08:03:34;;;;;;;2.65;1.83;;;8.70;99.90;;;;;;5010071;28;20045;-61
2024/03/16 08:06:20;;;;;;;4.25;2.63;;;8.70;99.90;;;;;;5024332;28;20394;-62
2024/03/16 08:09:08;;;;;;;5.68;2.65;;;8.80;99.90;;;;;;5024180;28;20450;-62
2024/03/16 08:11:54;;;;;;;5.38;3.20;;;8.90;99.90;;;;;;5025204;28;20064;-61
2024/03/16 08:14:40;;;;;;;9.93;4.13;;;8.90;99.90;;;;;;5020839;28;20065;-61
2024/03/16 08:17:26;;;;;;;4.28;2.50;;;8.80;99.90;;;;;;5009905;28;20704;-61
2024/03/16 08:20:12;;;;;;;3.47;2.47;;;8.80;99.90;;;;;;5025246;28;20037;-61
2024/03/16 08:22:58;;;;;;;4.07;2.10;;;8.80;99.90;;;;;;5024608;28;20044;-61
2024/03/16 08:25:46;;;;;;;4.05;2.00;;;8.70;99.90;;;;;;5026228;28;20462;-61
2024/03/16 08:28:32;;;;;;;2.92;1.42;;;8.60;99.90;;;;;;5022704;28;20041;-60
2024/03/16 08:31:18;;;;;;;1.02;0.90;;;8.50;99.90;;;;;;5010079;28;20505;-61
2024/03/16 08:34:04;;;;;;;1.05;0.70;;;8.30;99.90;;;;;;5021045;28;20060;-61
2024/03/16 08:36:50;;;;;;;0.98;0.70;;;8.20;99.90;;;;;;5026460;28;20125;-61
2024/03/16 08:39:36;;;;;;;1.02;0.63;;;8.10;99.90;;;;;;5020416;28;20041;-61
2024/03/16 08:42:21;;;;;;;1.67;0.70;;;8.10;99.90;;;;;;5022101;28;20042;-61
2024/03/16 08:45:08;;;;;;;0.47;0.40;;;8.00;99.90;;;;;;5029550;28;20029;-61
2024/03/16 08:47:53;;;;;;;0.77;0.50;;;8.00;99.90;;;;;;5023908;28;20075;-61
2024/03/16 08:50:39;;;;;;;0.60;0.50;;;7.90;99.90;;;;;;5024823;28;20080;-61
2024/03/16 08:53:26;;;;;;;0.70;0.47;;;7.90;99.90;;;;;;5023123;28;20029;-62
2024/03/16 08:56:12;;;;;;;1.25;0.47;;;7.90;99.90;;;;;;5022350;28;20068;-61
2024/03/16 08:58:58;;;;;;;0.30;0.30;;;7.80;99.90;;;;;;5024455;28;20041;-62
2024/03/16 09:01:44;;;;;;;1.95;0.40;;;7.70;99.90;;;;;;5025540;28;20116;-62
2024/03/16 09:04:29;;;;;;;0.50;0.30;;;7.80;99.90;;;;;;5019835;28;20134;-64
2024/03/16 09:07:15;;;;;;;0.98;0.40;;;7.80;99.90;;;;;;5021702;28;20034;-63
2024/03/16 09:10:01;;;;;;;1.75;0.55;;;7.80;99.90;;;;;;5017105;28;20056;-62
2024/03/16 09:12:47;;;;;;;0.87;0.67;;;7.70;99.90;;;;;;5019799;28;20033;-63
2024/03/16 09:15:33;;;;;;;2.42;0.60;;;7.80;99.90;;;;;;5018380;28;20644;-66
2024/03/16 09:18:19;;;;;;;3.65;0.55;;;7.90;99.90;;;;;;5020469;28;20041;-64
2024/03/16 09:21:05;;;;;;;1.30;0.65;;;7.90;99.90;;;;;;5022789;28;20091;-64
2024/03/16 09:23:51;;;;;;;2.00;0.70;;;7.90;99.90;;;;;;5023121;28;20124;-63
2024/03/16 09:26:37;;;;;;;1.58;0.80;;;8.00;99.90;;;;;;5025533;28;20087;-63
2024/03/16 09:29:22;;;;;;;2.17;0.90;;;7.80;99.90;;;;;;5021817;28;20659;-63
2024/03/16 09:32:08;;;;;;;1.67;1.00;;;7.50;99.90;;;;;;5021120;28;20128;-63
2024/03/16 09:34:54;;;;;;;2.45;1.05;;;7.50;99.90;;;;;;5024664;28;20113;-63
2024/03/16 09:37:40;;;;;;;1.65;1.13;;;7.50;99.90;;;;;;5017526;28;20330;-62
2024/03/16 09:40:26;;;;;;;4.32;2.10;;;7.50;99.90;;;;;;5023893;28;20045;-62
2024/03/16 09:43:12;;;;;;;2.28;1.33;;;7.40;99.90;;;;;;5022357;28;20433;-62
2024/03/16 09:45:59;;;;;;;2.90;1.80;;;7.50;99.90;;;;;;5023062;28;20512;-62
2024/03/16 09:48:44;;;;;;;5.07;1.90;;;7.60;99.90;;;;;;5023220;28;20025;-63
2024/03/16 09:51:31;;;;;;;2.10;1.30;;;7.70;99.90;;;;;;5022976;28;20052;-63
2024/03/16 09:54:17;;;;;;;4.50;1.80;;;7.90;99.90;;;;;;5023487;28;20025;-63
2024/03/16 09:57:04;;;;;;;4.32;1.40;;;7.90;99.90;;;;;;5023186;28;20052;-62
2024/03/16 09:59:50;;;;;;;1.98;1.20;;;7.90;99.90;;;;;;5022728;28;20103;-62
2024/03/16 10:02:40;;;;;;;1.35;0.85;;;7.80;99.90;;;;;;5023208;28;20048;-61
2024/03/16 10:05:26;;;;;;;1.30;0.60;;;7.60;99.90;;;;;;5010583;28;20033;-62
2024/03/16 10:08:18;;;;;;;1.33;0.65;;;7.60;99.90;;;;;;5020050;28;20116;-62
2024/03/16 10:11:15;;;;;;;1.10;0.70;;;7.40;99.90;;;;;;5019451;28;20033;-62
2024/03/16 10:14:02;;;;;;;1.88;0.90;;;7.40;99.90;;;;;;5022290;28;20350;-62
2024/03/16 10:16:48;;;;;;;5.22;0.98;;;7.30;99.90;;;;;;5023084;28;20029;-62
2024/03/16 10:19:35;;;;;;;1.67;0.88;;;7.40;99.90;;;;;;5016986;28;20043;-62
2024/03/16 10:22:22;;;;;;;3.58;1.50;;;7.30;99.90;;;;;;5021338;28;20095;-62
2024/03/16 10:25:09;;;;;;;;;;;7.20;99.90;;;;;;5020977;28;20037;-62
2024/03/16 10:27:55;;;;;;;2.42;1.27;;;7.20;99.90;;;;;;5008153;28;19978;-62
2024/03/16 10:30:45;;;;;;;1.60;0.82;;;7.40;99.90;;;;;;5021630;28;20044;-63
2024/03/16 10:33:38;;;;;;;6.22;1.40;;;7.30;99.90;;;;;;5022077;28;20045;-62
2024/03/16 10:36:25;;;;;;;4.13;1.30;;;7.40;99.90;;;;;;5021603;28;20065;-62
2024/03/16 10:39:16;;;;;;;3.78;1.10;;;7.40;99.90;;;;;;5020890;28;20494;-62
2024/03/16 10:42:04;;;;;;;2.25;1.30;;;7.80;99.90;;;;;;5021780;28;20104;-63
2024/03/16 10:44:50;;;;;;;3.65;2.10;;;8.00;99.90;;;;;;5019631;28;20427;-62
2024/03/16 10:47:36;;;;;;;2.38;1.40;;;7.80;99.90;;;;;;5021167;28;20513;-63
2024/03/16 10:50:25;;;;;;;4.65;1.65;;;7.70;99.90;;;;;;5021467;28;20029;-62
2024/03/16 10:53:12;;;;;;;2.58;1.42;;;7.70;99.90;;;;;;5023611;28;20029;-62
2024/03/16 10:56:00;;;;;;;;;;;7.50;99.90;;;;;;5022139;28;20077;-64
2024/03/16 10:58:45;;;;;;;2.75;0.98;;;7.40;99.90;;;;;;5021719;28;19909;-62
2024/03/16 11:01:33;;;;;;;0.57;0.57;;;7.50;99.90;;;;;;5022837;28;20049;-62
2024/03/16 11:04:19;;;;;;;1.40;0.60;;;7.30;99.90;;;;;;5020648;28;20045;-62
2024/03/16 11:07:06;;;;;;;1.20;0.60;;;7.30;99.90;;;;;;5018376;28;20453;-62
2024/03/16 11:09:52;;;;;;;1.23;0.63;;;7.30;99.90;;;;;;5022761;28;20555;-62
2024/03/16 11:12:43;;;;;;;2.05;0.68;;;7.50;99.90;;;;;;5021971;28;20041;-62
2024/03/16 11:15:32;;;;;;;1.55;0.60;;;7.60;99.90;;;;;;5022651;28;20124;-62
2024/03/16 11:18:21;;;;;;;3.55;0.88;;;7.60;99.90;;;;;;5007145;28;20439;-62
2024/03/16 11:21:14;;;;;;;1.73;0.52;;;7.80;99.90;;;;;;5018985;28;20056;-63
2024/03/16 11:24:04;;;;;;;4.85;1.23;;;7.90;99.90;;;;;;5021617;28;20037;-62
2024/03/16 11:26:50;;;;;;;2.80;0.98;;;7.80;99.90;;;;;;5022860;28;20041;-62
2024/03/16 11:29:58;;;;;;;2.42;0.70;;;7.80;99.90;;;;;;5021936;28;20048;-62
2024/03/16 11:32:44;;;;;;;3.75;1.42;;;7.50;99.90;;;;;;5019816;28;20042;-64
2024/03/16 11:35:30;;;;;;;2.10;0.82;;;7.30;99.90;;;;;;5023247;28;20599;-63
2024/03/16 11:38:16;;;;;;;3.17;1.00;;;7.10;99.90;;;;;;5018809;28;20040;-63
2024/03/16 11:41:02;;;;;;;2.65;1.10;;;7.20;99.90;;;;;;5022300;28;20026;-63
2024/03/16 11:43:48;;;;;;;1.63;0.70;;;7.20;99.90;;;;;;5020094;28;20124;-63
2024/03/16 11:46:34;;;;;;;2.15;0.85;;;7.30;99.90;;;;;;5023581;28;20034;-64
2024/03/16 11:49:21;;;;;;;2.47;0.93;;;7.30;99.90;;;;;;5021352;28;20113;-63
2024/03/16 11:52:08;;;;;;;1.98;1.10;;;7.40;99.90;;;;;;5019985;28;20106;-64
2024/03/16 11:54:53;;;;;;;6.55;1.25;;;7.50;99.90;;;;;;5020489;28;20037;-63
2024/03/16 11:57:40;;;;;;;3.10;0.85;;;7.40;99.90;;;;;;5021819;28;20455;-63
2024/03/16 12:00:29;;;;;;;3.35;1.40;;;7.40;99.90;;;;;;5020098;28;20124;-63
2024/03/16 12:03:15;;;;;;;3.95;1.48;;;7.20;99.90;;;;;;5018798;28;20510;-64
2024/03/16 12:06:01;;;;;;;1.77;0.97;;;7.30;99.90;;;;;;5021894;28;20080;-63
2024/03/16 12:08:47;;;;;;;6.13;1.30;;;7.30;99.90;;;;;;5020978;28;20855;-63
2024/03/16 12:11:33;;;;;;;3.10;1.05;;;7.30;99.90;;;;;;5020946;28;20037;-63
2024/03/16 12:14:21;;;;;;;7.75;1.38;;;7.30;99.90;;;;;;5023734;28;20370;-63
2024/03/16 12:17:09;;;;;;;6.15;1.40;;;7.40;99.90;;;;;;5024746;28;20033;-63
2024/03/16 12:19:56;;;;;;;7.22;1.10;;;7.20;99.90;;;;;;5020857;28;20757;-63
2024/03/16 12:22:53;;;;;;;4.65;1.30;;;7.10;99.90;;;;;;5024141;28;20044;-63
2024/03/16 12:25:39;;;;;;;6.93;1.52;;;7.10;99.90;;;;;;5026490;28;20037;-62
2024/03/16 12:28:27;;;;;;;4.43;1.33;;;6.90;99.90;;;;;;5021824;28;20634;-62
2024/03/16 12:31:14;;;;;;;6.28;1.40;;;6.80;99.90;;;;;;5022133;28;20060;-62
2024/03/16 12:34:00;;;;;;;10.93;1.60;;;6.80;99.90;;;;;;5024679;28;20042;-63
2024/03/16 12:36:47;;;;;;;6.13;1.45;;;6.90;99.90;;;;;;5026497;28;20507;-62
2024/03/16 12:39:33;;;;;;;6.30;1.65;;;6.80;99.90;;;;;;5025571;28;20620;-62
2024/03/16 12:42:19;;;;;;;8.40;2.15;;;6.90;99.90;;;;;;5023152;28;20072;-62
2024/03/16 12:45:07;;;;;;;3.55;1.98;;;6.80;99.90;;;;;;5025654;28;21184;-62
2024/03/16 12:47:53;;;;;;;6.88;1.77;;;6.70;99.90;;;;;;5022812;28;20133;-63
2024/03/16 12:50:38;;;;;;;3.17;1.42;;;6.60;99.90;;;;;;5020815;28;20088;-63
2024/03/16 12:53:24;;;;;;;5.30;1.48;;;6.70;99.90;;;;;;5009373;28;20626;-63
2024/03/16 12:56:11;;;;;;;5.45;2.20;;;6.80;99.90;;;;;;5024718;28;20729;-62
2024/03/16 12:58:56;;;;;;;5.07;1.70;;;6.90;99.90;;;;;;5022512;28;20041;-63
2024/03/16 13:01:42;;;;;;;6.20;1.75;;;6.80;99.90;;;;;;5024611;28;20045;-62
2024/03/16 13:04:29;;;;;;;4.78;1.73;;;6.90;99.90;;;;;;5023032;28;20033;-63
2024/03/16 13:07:15;;;;;;;5.47;1.75;;;7.00;99.90;;;;;;5024046;28;20263;-63
2024/03/16 13:10:00;;;;;;;4.07;1.30;;;7.00;99.90;;;;;;5019421;28;20033;-63
2024/03/16 13:12:46;;;;;;;5.50;1.80;;;7.10;99.90;;;;;;5022961;28;20053;-63
2024/03/16 13:15:32;;;;;;;7.78;2.05;;;7.00;99.90;;;;;;5024159;28;20220;-63
2024/03/16 13:18:18;;;;;;;4.72;2.38;;;6.80;99.90;;;;;;5022235;28;20084;-64
2024/03/16 13:21:10;;;;;;;2.90;1.63;;;6.90;99.90;;;;;;5025564;28;20167;-64
2024/03/16 13:23:56;;;;;;;7.13;1.50;;;7.00;99.90;;;;;;5023581;28;20053;-64
2024/03/16 13:26:42;;;;;;;8.93;1.60;;;7.10;99.90;;;;;;5025354;28;20052;-63
2024/03/16 13:29:28;;;;;;;5.28;1.33;;;7.10;99.90;;;;;;5023767;28;20036;-64
2024/03/16 13:32:14;;;;;;;4.22;1.30;;;7.30;99.90;;;;;;5023374;28;20084;-64
2024/03/16 13:35:00;;;;;;;2.80;1.30;;;7.40;99.90;;;;;;5024703;28;20033;-63
2024/03/16 13:37:46;;;;;;;3.10;1.10;;;7.40;99.90;;;;;;5023923;28;20084;-64
2024/03/16 13:40:32;;;;;;;3.65;1.55;;;7.40;99.90;;;;;;5023900;28;20048;-64
2024/03/16 13:43:19;;;;;;;2.42;1.60;;;7.30;99.90;;;;;;5022786;28;20091;-64
2024/03/16 13:46:05;;;;;;;3.53;1.30;;;7.30;99.90;;;;;;5023199;28;20162;-64
2024/03/16 13:49:00;;;;;;;5.07;1.20;;;7.30;99.90;;;;;;5023166;28;20041;-64
2024/03/16 13:51:46;;;;;;;3.13;1.23;;;7.40;99.90;;;;;;5024975;28;20030;-64
2024/03/16 13:54:31;;;;;;;6.88;1.33;;;7.40;99.90;;;;;;5024283;28;20445;-64
2024/03/16 13:57:17;;;;;;;11.40;1.40;;;7.40;99.90;;;;;;5022701;28;20370;-63
2024/03/16 14:00:06;;;;;;;6.95;1.48;;;7.40;99.90;;;;;;5023223;28;20124;-64
2024/03/16 14:02:52;;;;;;;6.88;1.48;;;7.20;99.90;;;;;;5020604;28;20414;-63
2024/03/16 14:05:38;;;;;;;8.70;1.85;;;7.20;99.90;;;;;;5025480;28;20052;-64
2024/03/16 14:08:24;;;;;;;4.60;1.02;;;7.30;99.90;;;;;;5023614;28;20064;-64
2024/03/16 14:11:10;;;;;;;5.07;1.30;;;7.40;99.90;;;;;;5022895;28;20034;-64
2024/03/16 14:13:57;;;;;;;4.13;1.38;;;7.50;99.90;;;;;;5023393;28;20034;-64
2024/03/16 14:16:43;;;;;;;7.07;1.38;;;7.60;99.90;;;;;;5026929;28;20037;-64
2024/03/16 14:19:29;;;;;;;6.03;1.42;;;7.50;99.90;;;;;;5021521;28;20115;-64
2024/03/16 14:22:15;;;;;;;5.47;1.58;;;7.40;99.90;;;;;;5052759;23;20041;-63
2024/03/16 14:25:01;;;;;;;3.45;1.55;;;7.30;99.90;;;;;;5038083;28;20067;-63
2024/03/16 14:27:51;;;;;;;6.30;1.45;;;7.20;99.90;;;;;;5037565;28;20068;-63
2024/03/16 14:30:37;;;;;;;4.38;1.40;;;7.30;99.90;;;;;;5037201;28;20041;-63
2024/03/16 14:33:23;;;;;;;4.72;1.50;;;7.30;99.90;;;;;;5040355;28;20067;-63
2024/03/16 14:36:09;;;;;;;6.00;1.50;;;7.30;99.90;;;;;;5042231;28;20064;-63
2024/03/16 14:38:55;;;;;;;4.88;1.52;;;7.20;99.90;;;;;;5034137;28;20041;-63